createdAt,value
2023-04-15T00:02:18.825Z,68.79
2023-04-15T00:04:47.379Z,68.82
2023-04-15T00:07:15.114Z,69.13
2023-04-15T00:09:44.565Z,69.11
2023-04-15T00:12:12.648Z,69.04
2023-04-15T00:14:40.404Z,69.02
2023-04-15T00:17:08.483Z,69.27
2023-04-15T00:19:36.741Z,69.20
2023-04-15T00:22:04.361Z,69.41
2023-04-15T00:24:32.690Z,69.38
2023-04-15T00:27:00.460Z,69.54
2023-04-15T00:29:28.505Z,69.45
2023-04-15T00:31:57.116Z,69.67
2023-04-15T00:34:24.796Z,69.58
2023-04-15T00:36:52.518Z,69.67
2023-04-15T00:39:20.863Z,69.63
2023-04-15T00:41:49.118Z,69.77
2023-04-15T00:44:18.805Z,69.95
2023-04-15T00:46:46.624Z,69.99
2023-04-15T00:49:14.492Z,69.92
2023-04-15T00:51:42.115Z,69.92
2023-04-15T00:54:09.937Z,69.92
2023-04-15T00:56:38.591Z,70.05
2023-04-15T00:59:07.052Z,70.07
2023-04-15T01:01:38.336Z,70.40
2023-04-15T01:04:07.082Z,70.32
2023-04-15T01:06:35.200Z,70.56
2023-04-15T01:09:03.450Z,70.35
2023-04-15T01:11:34.305Z,70.77
2023-04-15T01:14:02.727Z,70.70
2023-04-15T01:16:31.584Z,70.88
2023-04-15T01:19:00.199Z,70.88
2023-04-15T01:21:28.289Z,70.90
2023-04-15T01:23:57.900Z,71.06
2023-04-15T01:26:25.793Z,71.10
2023-04-15T01:28:53.488Z,71.02
2023-04-15T01:31:22.139Z,71.20
2023-04-15T01:33:50.020Z,71.12
2023-04-15T01:36:17.715Z,71.17
2023-04-15T01:38:45.717Z,71.22
2023-04-15T01:41:15.171Z,71.45
2023-04-15T01:43:42.889Z,71.53
2023-04-15T01:46:11.087Z,71.84
2023-04-15T01:48:38.803Z,71.91
2023-04-15T01:51:06.490Z,71.79
2023-04-15T01:53:34.225Z,71.81
2023-04-15T01:56:03.450Z,71.88
2023-04-15T01:58:31.531Z,72.06
2023-04-15T02:00:59.216Z,72.01
2023-04-15T02:03:27.629Z,72.06
2023-04-15T02:05:55.472Z,72.17
2023-04-15T02:08:23.195Z,72.13
2023-04-15T02:10:51.204Z,72.24
2023-04-15T02:13:19.262Z,72.14
2023-04-15T02:15:48.050Z,72.25
2023-04-15T02:18:16.201Z,72.36
2023-04-15T02:20:45.453Z,72.48
2023-04-15T02:23:13.259Z,72.51
2023-04-15T02:25:41.018Z,72.52
2023-04-15T02:28:08.753Z,72.63
2023-04-15T02:30:36.503Z,72.63
2023-04-15T02:33:04.263Z,72.64
2023-04-15T02:35:32.113Z,72.57
2023-04-15T02:38:00.910Z,72.74
2023-04-15T02:40:28.983Z,72.77
2023-04-15T02:42:56.633Z,72.82
2023-04-15T02:45:27.470Z,73.04
2023-04-15T02:47:55.783Z,72.84
2023-04-15T02:50:24.233Z,72.89
2023-04-15T02:52:52.217Z,72.97
2023-04-15T02:55:20.119Z,73.04
2023-04-15T02:57:47.851Z,73.00
2023-04-15T03:00:16.117Z,73.09
2023-04-15T03:02:46.761Z,73.25
2023-04-15T03:05:14.860Z,73.11
2023-04-15T03:07:50.280Z,73.14
2023-04-15T03:10:18.456Z,73.12
2023-04-15T03:12:47.235Z,73.05
2023-04-15T03:15:18.539Z,73.19
2023-04-15T03:17:49.642Z,73.19
2023-04-15T03:20:17.578Z,73.18
2023-04-15T03:22:45.446Z,73.24
2023-04-15T03:25:13.221Z,73.18
2023-04-15T03:27:41.695Z,73.31
2023-04-15T03:30:09.993Z,73.25
2023-04-15T03:32:38.930Z,73.34
2023-04-15T03:35:08.194Z,73.34
2023-04-15T03:37:35.904Z,73.37
2023-04-15T03:40:03.618Z,73.18
2023-04-15T03:42:31.668Z,73.38
2023-04-15T03:44:59.384Z,73.60
2023-04-15T03:47:27.048Z,73.57
2023-04-15T03:49:54.711Z,73.54
2023-04-15T03:52:22.384Z,73.79
2023-04-15T03:54:50.021Z,73.84
2023-04-15T03:57:17.726Z,73.70
2023-04-15T03:59:45.364Z,73.83
2023-04-15T04:02:13.224Z,73.71
2023-04-15T04:04:41.081Z,73.92
2023-04-15T04:07:09.142Z,74.18
2023-04-15T04:09:39.016Z,74.20
2023-04-15T04:12:06.690Z,74.41
2023-04-15T04:14:34.427Z,74.55
2023-04-15T04:17:02.281Z,75.02
2023-04-15T04:19:30.221Z,75.00
2023-04-15T04:21:57.961Z,75.31
2023-04-15T04:24:26.353Z,75.11
2023-04-15T04:26:54.045Z,75.27
2023-04-15T04:29:21.693Z,75.42
2023-04-15T04:31:49.475Z,75.61
2023-04-15T04:34:17.429Z,75.85
2023-04-15T04:36:45.275Z,75.80
2023-04-15T04:39:12.954Z,75.68
2023-04-15T04:41:41.024Z,75.67
2023-04-15T04:44:08.728Z,76.05
2023-04-15T04:46:36.434Z,76.25
2023-04-15T04:49:04.130Z,76.41
2023-04-15T04:51:32.070Z,76.30
2023-04-15T04:54:01.271Z,76.84
2023-04-15T04:56:30.374Z,76.77
2023-04-15T04:58:58.053Z,76.98
2023-04-15T05:01:27.506Z,77.39
2023-04-15T05:03:55.415Z,77.82
2023-04-15T05:06:23.491Z,78.02
2023-04-15T05:08:51.406Z,78.28
2023-04-15T05:11:19.105Z,78.15
2023-04-15T05:13:46.832Z,78.16
2023-04-15T05:16:14.542Z,77.93
2023-04-15T05:18:42.356Z,78.38
2023-04-15T05:21:10.432Z,79.44
2023-04-15T05:23:38.119Z,78.79
2023-04-15T05:26:05.791Z,78.67
2023-04-15T05:28:33.548Z,79.30
2023-04-15T05:31:01.374Z,79.45
2023-04-15T05:33:29.091Z,79.36
2023-04-15T05:35:56.760Z,79.64
2023-04-15T05:38:24.503Z,79.70
2023-04-15T05:40:52.349Z,79.83
2023-04-15T05:43:20.588Z,79.77
2023-04-15T05:45:48.427Z,79.77
2023-04-15T05:48:16.241Z,80.23
2023-04-15T05:50:43.945Z,80.70
2023-04-15T05:53:11.649Z,80.78
2023-04-15T05:55:39.335Z,80.78
2023-04-15T05:58:07.075Z,80.62
2023-04-15T06:00:34.720Z,80.40
2023-04-15T06:03:02.469Z,81.06
2023-04-15T06:05:30.221Z,80.84
2023-04-15T06:07:57.932Z,81.08
2023-04-15T06:10:25.952Z,81.38
2023-04-15T06:12:53.863Z,81.26
2023-04-15T06:15:21.570Z,81.32
2023-04-15T06:17:49.254Z,81.73
2023-04-15T06:20:16.892Z,81.61
2023-04-15T06:22:44.559Z,81.72
2023-04-15T06:25:12.300Z,81.90
2023-04-15T06:27:40.572Z,81.73
2023-04-15T06:30:08.948Z,82.12
2023-04-15T06:32:36.665Z,82.14
2023-04-15T06:35:04.903Z,82.61
2023-04-15T06:37:32.725Z,82.37
2023-04-15T06:40:00.439Z,82.15
2023-04-15T06:42:28.208Z,82.37
2023-04-15T06:44:56.167Z,82.57
2023-04-15T06:47:23.847Z,82.38
2023-04-15T06:49:51.922Z,82.73
2023-04-15T06:52:19.880Z,82.72
2023-04-15T06:54:47.521Z,83.05
2023-04-15T06:57:15.269Z,82.72
2023-04-15T06:59:43.441Z,83.00
2023-04-15T07:02:12.484Z,83.01
2023-04-15T07:04:40.680Z,82.95
2023-04-15T07:07:09.438Z,83.08
2023-04-15T07:09:37.302Z,83.34
2023-04-15T07:12:05.207Z,83.34
2023-04-15T07:14:32.951Z,83.13
2023-04-15T07:17:00.637Z,83.35
2023-04-15T07:19:28.387Z,83.37
2023-04-15T07:21:56.529Z,83.58
2023-04-15T07:24:26.681Z,83.81
2023-04-15T07:26:59.464Z,83.66
2023-04-15T07:29:28.574Z,83.59
2023-04-15T07:31:57.151Z,83.84
2023-04-15T07:34:25.089Z,84.07
2023-04-15T07:36:52.758Z,83.60
2023-04-15T07:39:20.379Z,83.90
2023-04-15T07:41:49.046Z,83.98
2023-04-15T07:44:16.757Z,83.83
2023-04-15T07:46:44.438Z,83.87
2023-04-15T07:49:13.331Z,84.07
2023-04-15T07:51:40.987Z,84.26
2023-04-15T07:54:08.928Z,84.28
2023-04-15T07:56:36.635Z,84.28
2023-04-15T07:59:06.041Z,84.01
2023-04-15T08:01:33.732Z,84.00
2023-04-15T08:04:02.258Z,83.90
2023-04-15T08:06:30.255Z,83.90
2023-04-15T08:08:58.088Z,83.79
2023-04-15T08:11:26.196Z,83.86
2023-04-15T08:13:53.907Z,84.08
2023-04-15T08:16:25.388Z,83.91
2023-04-15T08:18:55.811Z,84.10
2023-04-15T08:21:23.831Z,84.43
2023-04-15T08:23:52.409Z,84.28
2023-04-15T08:26:21.177Z,83.99
2023-04-15T08:28:49.241Z,83.94
2023-04-15T08:31:17.922Z,83.98
2023-04-15T08:33:46.216Z,84.20
2023-04-15T08:36:13.947Z,83.94
2023-04-15T08:38:41.834Z,84.39
2023-04-15T08:41:21.781Z,83.94
2023-04-15T08:43:53.669Z,83.68
2023-04-15T08:46:21.840Z,83.61
2023-04-15T08:48:49.759Z,83.43
2023-04-15T08:51:18.286Z,83.46
2023-04-15T08:53:47.460Z,83.52
2023-04-15T08:56:18.720Z,83.39
2023-04-15T08:58:47.000Z,83.54
2023-04-15T09:01:15.112Z,83.62
2023-04-15T09:03:43.059Z,83.54
2023-04-15T09:06:11.587Z,83.86
2023-04-15T09:08:39.270Z,83.52
2023-04-15T09:11:07.036Z,83.38
2023-04-15T09:13:34.842Z,83.63
2023-04-15T09:16:04.177Z,83.46
2023-04-15T09:18:36.308Z,83.42
2023-04-15T09:21:05.913Z,83.59
2023-04-15T09:23:34.103Z,83.71
2023-04-15T09:26:02.580Z,83.74
2023-04-15T09:28:30.841Z,83.90
2023-04-15T09:30:59.351Z,84.06
2023-04-15T09:33:28.014Z,84.00
2023-04-15T09:36:00.802Z,83.94
2023-04-15T09:38:28.485Z,84.01
2023-04-15T09:40:56.447Z,83.99
2023-04-15T09:43:38.207Z,84.07
2023-04-15T09:46:06.024Z,84.08
2023-04-15T09:48:33.744Z,84.25
2023-04-15T09:51:02.165Z,84.09
2023-04-15T09:53:32.863Z,84.31
2023-04-15T09:56:03.396Z,84.41
2023-04-15T09:58:33.506Z,84.30
2023-04-15T10:01:03.143Z,84.44
2023-04-15T10:03:36.809Z,84.33
2023-04-15T10:06:05.712Z,84.60
2023-04-15T10:08:34.907Z,84.59
2023-04-15T10:11:03.565Z,84.48
2023-04-15T10:13:37.117Z,84.36
2023-04-15T10:16:12.239Z,84.38
2023-04-15T10:18:43.166Z,84.63
2023-04-15T10:21:11.148Z,84.47
2023-04-15T10:23:39.525Z,84.75
2023-04-15T10:26:07.499Z,84.65
2023-04-15T10:28:35.176Z,84.85
2023-04-15T10:31:04.797Z,85.04
2023-04-15T10:33:33.815Z,84.80
2023-04-15T10:36:01.736Z,84.96
2023-04-15T10:38:33.817Z,84.88
2023-04-15T10:41:19.552Z,85.37
2023-04-15T10:43:57.783Z,85.12
2023-04-15T10:46:41.627Z,85.21
2023-04-15T10:49:14.411Z,85.39
2023-04-15T10:51:51.629Z,85.50
2023-04-15T10:54:25.762Z,85.40
2023-04-15T10:57:01.572Z,85.35
2023-04-15T10:59:33.190Z,85.37
2023-04-15T11:02:02.102Z,85.68
2023-04-15T11:04:46.001Z,85.52
2023-04-15T11:07:14.376Z,85.41
2023-04-15T11:09:42.015Z,85.83
2023-04-15T11:12:10.432Z,85.89
2023-04-15T11:14:43.323Z,85.83
2023-04-15T11:17:11.404Z,85.77
2023-04-15T11:19:39.335Z,85.72
2023-04-15T11:22:10.895Z,85.94
2023-04-15T11:24:47.349Z,86.19
2023-04-15T11:27:22.000Z,86.28
2023-04-15T11:29:49.960Z,86.39
2023-04-15T11:32:17.894Z,86.17
2023-04-15T11:34:46.592Z,86.52
2023-04-15T11:37:14.273Z,86.73
2023-04-15T11:39:41.987Z,86.95
2023-04-15T11:42:25.677Z,87.09
2023-04-15T11:45:06.466Z,86.99
2023-04-15T11:47:34.125Z,87.36
2023-04-15T11:50:17.872Z,87.19
2023-04-15T11:53:01.222Z,87.19
2023-04-15T11:55:29.354Z,87.54
2023-04-15T11:58:15.111Z,87.80
2023-04-15T12:01:02.878Z,87.67
2023-04-15T12:03:33.051Z,87.58
2023-04-15T12:06:08.270Z,87.52
2023-04-15T12:08:52.732Z,87.79
2023-04-15T12:11:21.494Z,88.13
2023-04-15T12:13:50.378Z,88.19
2023-04-15T12:16:19.297Z,88.07
2023-04-15T12:18:48.409Z,88.18
2023-04-15T12:21:16.435Z,88.12
2023-04-15T12:23:53.114Z,88.18
2023-04-15T12:26:37.068Z,88.19
2023-04-15T12:29:06.900Z,88.20
2023-04-15T12:31:35.903Z,88.08
2023-04-15T12:34:07.525Z,88.06
2023-04-15T12:36:38.166Z,88.11
2023-04-15T12:39:06.313Z,88.02
2023-04-15T12:41:34.148Z,88.08
2023-04-15T12:44:02.111Z,88.24
2023-04-15T12:46:29.967Z,88.36
2023-04-15T12:48:57.594Z,88.38
2023-04-15T12:51:27.236Z,88.32
2023-04-15T12:53:54.926Z,88.35
2023-04-15T12:56:23.890Z,88.63
2023-04-15T12:58:51.848Z,88.77
2023-04-15T13:01:19.949Z,88.68
2023-04-15T13:03:48.298Z,88.66
2023-04-15T13:06:16.567Z,88.63
2023-04-15T13:08:57.311Z,88.74
2023-04-15T13:11:26.027Z,88.80
2023-04-15T13:13:53.813Z,88.83
2023-04-15T13:16:21.927Z,88.55
2023-04-15T13:18:49.918Z,88.76
2023-04-15T13:21:17.799Z,88.85
2023-04-15T13:23:45.501Z,88.98
2023-04-15T13:26:13.242Z,88.82
2023-04-15T13:28:41.123Z,88.80
2023-04-15T13:31:08.876Z,88.71
2023-04-15T13:33:37.010Z,88.64
2023-04-15T13:36:04.775Z,88.80
2023-04-15T13:38:32.656Z,88.83
2023-04-15T13:41:00.462Z,88.82
2023-04-15T13:43:28.429Z,88.67
2023-04-15T13:45:56.215Z,88.41
2023-04-15T13:48:23.891Z,88.38
2023-04-15T13:50:51.609Z,88.44
2023-04-15T13:53:19.296Z,88.51
2023-04-15T13:55:47.145Z,88.62
2023-04-15T13:58:14.928Z,88.63
2023-04-15T14:00:42.601Z,88.77
2023-04-15T14:03:10.413Z,88.81
2023-04-15T14:05:38.360Z,89.06
2023-04-15T14:08:06.053Z,89.08
2023-04-15T14:10:33.738Z,88.92
2023-04-15T14:13:01.404Z,89.15
2023-04-15T14:15:29.140Z,89.16
2023-04-15T14:17:57.432Z,89.13
2023-04-15T14:20:25.247Z,89.23
2023-04-15T14:22:53.740Z,89.45
2023-04-15T14:25:32.851Z,89.43
2023-04-15T14:28:02.186Z,89.28
2023-04-15T14:30:30.194Z,89.26
2023-04-15T14:32:57.959Z,89.44
2023-04-15T14:35:26.787Z,89.53
2023-04-15T14:37:55.218Z,89.54
2023-04-15T14:40:23.004Z,89.50
2023-04-15T14:42:50.743Z,89.39
2023-04-15T14:45:18.527Z,89.55
2023-04-15T14:47:47.114Z,89.66
2023-04-15T14:50:15.024Z,89.68
2023-04-15T14:52:42.761Z,89.48
2023-04-15T14:55:12.024Z,89.42
2023-04-15T14:57:40.849Z,89.47
2023-04-15T15:00:10.327Z,89.44
2023-04-15T15:02:40.119Z,89.42
2023-04-15T15:05:09.776Z,89.56
2023-04-15T15:07:38.766Z,89.73
2023-04-15T15:10:07.363Z,89.56
2023-04-15T15:12:35.068Z,89.57
2023-04-15T15:15:09.246Z,89.42
2023-04-15T15:17:43.837Z,89.63
2023-04-15T15:20:11.716Z,89.65
2023-04-15T15:22:39.424Z,89.67
2023-04-15T15:25:07.190Z,89.81
2023-04-15T15:27:37.096Z,89.73
2023-04-15T15:30:06.879Z,89.68
2023-04-15T15:32:34.890Z,89.66
2023-04-15T15:35:02.711Z,89.56
2023-04-15T15:37:30.763Z,89.64
2023-04-15T15:39:58.927Z,89.60
2023-04-15T15:42:26.682Z,89.64
2023-04-15T15:44:54.618Z,89.71
2023-04-15T15:47:22.681Z,89.86
2023-04-15T15:49:50.472Z,89.93
2023-04-15T15:52:18.235Z,89.88
2023-04-15T15:54:46.102Z,89.99
2023-04-15T15:57:13.797Z,89.95
2023-04-15T15:59:43.589Z,89.83
2023-04-15T16:02:12.293Z,90.10
2023-04-15T16:04:40.573Z,90.31
2023-04-15T16:07:09.224Z,90.12
2023-04-15T16:09:37.062Z,90.18
2023-04-15T16:12:04.749Z,90.13
2023-04-15T16:14:32.503Z,90.36
2023-04-15T16:17:00.121Z,90.65
2023-04-15T16:19:28.021Z,90.66
2023-04-15T16:21:56.283Z,90.57
2023-04-15T16:24:24.026Z,90.74
2023-04-15T16:26:51.786Z,90.54
2023-04-15T16:29:19.447Z,90.78
2023-04-15T16:31:47.435Z,91.01
2023-04-15T16:34:16.065Z,91.20
2023-04-15T16:36:43.993Z,91.36
2023-04-15T16:39:11.800Z,91.43
2023-04-15T16:41:39.659Z,91.19
2023-04-15T16:44:08.845Z,91.38
2023-04-15T16:46:38.118Z,91.45
2023-04-15T16:49:06.968Z,91.29
2023-04-15T16:51:34.718Z,91.49
2023-04-15T16:54:02.436Z,91.43
2023-04-15T16:56:30.360Z,91.48
2023-04-15T16:58:58.038Z,91.38
2023-04-15T17:01:26.313Z,91.65
2023-04-15T17:03:56.184Z,91.57
2023-04-15T17:06:24.274Z,91.69
2023-04-15T17:08:52.068Z,92.22
2023-04-15T17:11:19.787Z,92.29
2023-04-15T17:13:47.968Z,92.29
2023-04-15T17:16:15.889Z,92.12
2023-04-15T17:18:44.018Z,92.06
2023-04-15T17:21:11.679Z,92.31
2023-04-15T17:23:39.364Z,92.37
2023-04-15T17:26:06.997Z,92.54
2023-04-15T17:28:34.722Z,92.76
2023-04-15T17:31:03.489Z,92.50
2023-04-15T17:33:57.675Z,92.48
2023-04-15T17:36:19.034Z,92.18
2023-04-15T17:38:46.880Z,92.48
2023-04-15T17:41:14.803Z,92.40
2023-04-15T17:43:42.868Z,92.44
2023-04-15T17:46:12.046Z,92.56
2023-04-15T17:48:41.090Z,92.56
2023-04-15T17:51:08.805Z,92.55
2023-04-15T17:53:36.496Z,92.61
2023-04-15T17:56:04.544Z,92.60
2023-04-15T17:58:32.262Z,92.32
2023-04-15T18:00:59.925Z,92.59
2023-04-15T18:03:28.377Z,92.58
2023-04-15T18:05:56.295Z,92.45
2023-04-15T18:08:23.969Z,92.63
2023-04-15T18:10:51.977Z,92.90
2023-04-15T18:13:19.713Z,92.97
2023-04-15T18:15:48.553Z,93.33
2023-04-15T18:18:16.314Z,92.80
2023-04-15T18:20:44.263Z,93.15
2023-04-15T18:23:14.499Z,92.94
2023-04-15T18:25:43.766Z,92.79
2023-04-15T18:28:12.252Z,92.99
2023-04-15T18:30:40.340Z,93.16
2023-04-15T18:33:08.406Z,93.23
2023-04-15T18:35:36.635Z,93.34
2023-04-15T18:38:05.352Z,93.51
2023-04-15T18:40:33.126Z,93.70
2023-04-15T18:43:01.239Z,93.71
2023-04-15T18:45:29.906Z,93.80
2023-04-15T18:47:58.178Z,93.89
2023-04-15T18:50:26.221Z,93.93
2023-04-15T18:52:54.060Z,93.82
2023-04-15T18:55:22.769Z,93.70
2023-04-15T18:57:51.235Z,93.81
2023-04-15T19:00:19.252Z,94.12
2023-04-15T19:02:47.214Z,93.89
2023-04-15T19:05:15.005Z,94.05
2023-04-15T19:07:43.011Z,94.03
2023-04-15T19:10:10.807Z,94.00
2023-04-15T19:12:39.950Z,93.95
2023-04-15T19:15:08.060Z,94.10
2023-04-15T19:17:36.129Z,94.19
2023-04-15T19:20:04.608Z,94.00
2023-04-15T19:22:33.226Z,93.94
2023-04-15T19:25:01.187Z,94.03
2023-04-15T19:27:29.227Z,93.96
2023-04-15T19:29:56.910Z,94.04
2023-04-15T19:32:24.760Z,94.24
2023-04-15T19:34:52.777Z,94.21
2023-04-15T19:37:20.858Z,94.11
2023-04-15T19:39:48.596Z,94.27
2023-04-15T19:42:17.150Z,94.14
2023-04-15T19:44:45.379Z,94.09
2023-04-15T19:47:13.080Z,94.25
2023-04-15T19:49:40.915Z,94.36
2023-04-15T19:52:08.669Z,94.27
2023-04-15T19:54:36.398Z,94.23
2023-04-15T19:57:04.115Z,94.34
2023-04-15T19:59:31.872Z,94.30
2023-04-15T20:01:59.624Z,94.18
2023-04-15T20:04:27.854Z,94.26
2023-04-15T20:06:56.120Z,94.31
2023-04-15T20:09:23.780Z,94.33
2023-04-15T20:12:06.187Z,94.24
2023-04-15T20:14:39.103Z,94.29
2023-04-15T20:17:06.802Z,94.35
2023-04-15T20:19:34.513Z,94.42
2023-04-15T20:22:02.247Z,94.62
2023-04-15T20:24:30.005Z,94.50
2023-04-15T20:26:57.650Z,94.47
2023-04-15T20:29:25.359Z,94.33
2023-04-15T20:31:53.105Z,94.42
2023-04-15T20:34:20.983Z,94.43
2023-04-15T20:36:48.610Z,94.41
2023-04-15T20:39:17.051Z,94.42
2023-04-15T20:41:44.800Z,94.49
2023-04-15T20:44:12.459Z,94.51
2023-04-15T20:46:39.980Z,94.48
2023-04-15T20:49:07.891Z,94.50
2023-04-15T20:51:37.619Z,94.46
2023-04-15T20:54:06.200Z,94.41
2023-04-15T20:56:33.895Z,94.74
2023-04-15T20:59:01.615Z,94.79
2023-04-15T21:01:29.495Z,94.76
2023-04-15T21:03:58.303Z,94.72
2023-04-15T21:06:27.074Z,94.77
2023-04-15T21:08:54.786Z,94.83
2023-04-15T21:11:43.212Z,94.77
2023-04-15T21:14:10.315Z,94.71
2023-04-15T21:16:38.106Z,94.97
2023-04-15T21:19:06.151Z,94.87
2023-04-15T21:21:33.994Z,95.01
2023-04-15T21:24:01.905Z,95.03
2023-04-15T21:26:29.582Z,94.96
2023-04-15T21:28:57.287Z,95.03
2023-04-15T21:31:25.318Z,95.04
2023-04-15T21:33:53.052Z,94.97
2023-04-15T21:36:20.762Z,94.95
2023-04-15T21:38:48.641Z,95.03
2023-04-15T21:41:16.371Z,94.94
2023-04-15T21:43:44.114Z,94.96
2023-04-15T21:46:23.537Z,95.04
2023-04-15T21:48:53.569Z,94.88
2023-04-15T21:51:21.656Z,94.83
2023-04-15T21:53:49.315Z,94.78
2023-04-15T21:56:16.970Z,94.79
2023-04-15T21:58:44.599Z,94.77
2023-04-15T22:01:12.278Z,94.74
2023-04-15T22:03:40.548Z,94.67
2023-04-15T22:06:08.510Z,94.65
2023-04-15T22:08:48.352Z,94.76
2023-04-15T22:11:26.950Z,94.85
2023-04-15T22:13:56.558Z,94.63
2023-04-15T22:16:25.088Z,94.59
2023-04-15T22:18:53.401Z,94.66
2023-04-15T22:21:21.112Z,94.64
2023-04-15T22:23:48.858Z,94.58
2023-04-15T22:26:16.563Z,94.68
2023-04-15T22:28:45.261Z,94.71
2023-04-15T22:31:14.785Z,94.71
2023-04-15T22:33:42.668Z,94.77
2023-04-15T22:36:10.613Z,94.63
2023-04-15T22:38:38.259Z,94.80
2023-04-15T22:41:06.551Z,94.63
2023-04-15T22:43:34.255Z,94.79
2023-04-15T22:46:01.953Z,94.64
2023-04-15T22:48:29.807Z,94.53
2023-04-15T22:50:57.528Z,94.67
2023-04-15T22:53:25.235Z,94.62
2023-04-15T22:55:53.954Z,94.51
2023-04-15T22:58:21.706Z,94.60
2023-04-15T23:00:50.219Z,94.62
2023-04-15T23:03:18.030Z,94.65
2023-04-15T23:05:46.060Z,94.70
2023-04-15T23:08:13.718Z,94.41
2023-04-15T23:10:41.431Z,94.54
2023-04-15T23:13:09.108Z,94.48
2023-04-15T23:15:36.916Z,94.43
2023-04-15T23:18:04.750Z,94.55
2023-04-15T23:20:32.820Z,94.46
2023-04-15T23:23:00.571Z,94.52
2023-04-15T23:25:28.330Z,94.71
2023-04-15T23:27:55.943Z,94.56
2023-04-15T23:30:23.796Z,94.55
2023-04-15T23:32:51.577Z,94.95
2023-04-15T23:35:19.543Z,94.93
2023-04-15T23:37:47.261Z,94.92
2023-04-15T23:40:15.687Z,94.84
2023-04-15T23:42:43.469Z,94.87
2023-04-15T23:45:11.712Z,94.97
2023-04-15T23:47:39.696Z,94.86
2023-04-15T23:50:08.327Z,94.58
2023-04-15T23:52:36.359Z,94.59
2023-04-15T23:55:04.331Z,94.69
2023-04-15T23:57:32.032Z,94.81
